Thunderstorms From: 25-05-2018 15:00 Until: 26-05-2018 15:00 warning for: Thunderstorms Level: Yellow info button

Although rather usual in this region, locally or potentially dangerous phenomena are expected. (such as local winds, summer thunderstorms, rising streams or high waves) Be aware and pay attention to the latest weather updates, especially if you carry out activities exposed to weather or close to a stream or shoreline. 


Meteo18 Weather Cam more information Meteo18 Weather Cam


warning for Thunderstorms more information blitzortung!


Rain radar more information rain snow radar


Visit our other weather sites:

Template documentation
and downloads

And another site



Weather Underground History page Text

Daily Summary for November 19, 2016 Units:  Metric    English   Both
« Previous Day
Next Day »
Daily Weekly Monthly Yearly Custom
  High: Low: Average:
Temperature: -17.8 °C -14.9 °C -14.1 °C
Dew Point: -17.8 °C -16 °C -15.3 °C
Humidity: Humidity % 69 % 86 %
Wind Speed: 0 km/h 0 km/h 11.3 km/h
Wind Gust: 0 km/h - -
Wind:- - SSW
Pressure: 0 hPa 34005.6 hPa -
Precipitation: 20.32 mm    
Historical Graphs
 
 
Tabular Data for November 19, 2016
Time Temperature Dew Point Pressure Wind Wind Speed Wind Gust Humidity Rainfall Rate (Hourly)
-17.8 °C -17.8 °C 0 hPa Calm     Humidity % 0 mm
00:02 -14.4 °C -15 °C 34198.6 hPa SSW 15.6 km/h 31.1 km/h 93 % 71.12 mm
00:07 -14.5 °C -15.1 °C 34188.4 hPa SW 7.7 km/h 31.1 km/h 93 % 76.2 mm
00:12 -14.5 °C -15.1 °C 34178.3 hPa WSW 18.2 km/h 31.1 km/h 93 % 71.12 mm
00:22 -14.5 °C -15.1 °C 34178.3 hPa SSW 10.3 km/h 25.9 km/h 93 % 63.5 mm
00:32 -14.6 °C -15.1 °C 34164.7 hPa SSW 7.7 km/h 20.8 km/h 94 % 50.8 mm
00:37 -14.6 °C -15.1 °C 34178.3 hPa South 7.7 km/h 20.8 km/h 94 % 50.8 mm
00:42 -14.7 °C -15.1 °C 34178.3 hPa SW 10.3 km/h 18.2 km/h 95 % 45.72 mm
00:47 -14.7 °C -15.1 °C 34178.3 hPa SSW 12.9 km/h 18.2 km/h 95 % 33.02 mm
00:57 -14.7 °C -15.1 °C 34178.3 hPa SSW 12.9 km/h 20.8 km/h 95 % 12.7 mm
01:02 -14.7 °C -15.1 °C 34178.3 hPa SW 12.9 km/h 20.8 km/h 95 % 7.62 mm
01:07 -14.7 °C -15.1 °C 34178.3 hPa SW 10.3 km/h 25.9 km/h 95 % 0 mm
01:12 -14.7 °C -15.1 °C 34178.3 hPa SSW 10.3 km/h 25.9 km/h 95 % 0 mm
01:17 -14.6 °C -15 °C 34178.3 hPa SW 12.9 km/h 23.3 km/h 95 % 0 mm
01:22 -14.6 °C -14.9 °C 34178.3 hPa SSW 10.3 km/h 23.3 km/h 95 % 0 mm
01:27 -14.6 °C -14.9 °C 34164.7 hPa SSW 5.1 km/h 20.8 km/h 95 % 0 mm
01:32 -14.6 °C -15.1 °C 34154.6 hPa SSW 7.7 km/h 20.8 km/h 94 % 0 mm
01:37 -14.6 °C -15.1 °C 34154.6 hPa SW 7.7 km/h 18.2 km/h 94 % 0 mm
01:47 -14.6 °C -14.9 °C 34144.4 hPa WSW 10.3 km/h 12.9 km/h 95 % 0 mm
01:52 -14.4 °C -14.8 °C 34144.4 hPa SW 10.3 km/h 12.9 km/h 95 % 0 mm
01:57 -14.4 °C -14.8 °C 34144.4 hPa SW 15.6 km/h 20.8 km/h 95 % 0 mm
02:02 -14.3 °C -14.8 °C 34144.4 hPa WSW 15.6 km/h 20.8 km/h 94 % 0 mm
02:12 -14.3 °C -14.8 °C 34154.6 hPa SW 20.8 km/h 31.1 km/h 94 % 0 mm
02:17 -14.2 °C -14.8 °C 34154.6 hPa SW 12.9 km/h 38.8 km/h 93 % 0 mm
02:22 -14.1 °C -14.7 °C 34164.7 hPa WSW 28.5 km/h 38.8 km/h 93 % 0 mm
02:27 -14.1 °C -14.7 °C 34164.7 hPa SW 15.6 km/h 33.6 km/h 93 % 0 mm
02:32 -14 °C -14.6 °C 34164.7 hPa SW 28.5 km/h 33.6 km/h 93 % 0 mm
02:37 -13.9 °C -14.6 °C 34164.7 hPa SW 25.9 km/h 38.8 km/h 92 % 0 mm
02:42 -13.9 °C -14.6 °C 34164.7 hPa SSW 31.1 km/h 38.8 km/h 92 % 0 mm
02:47 -13.9 °C -14.6 °C 34164.7 hPa SW 18.2 km/h 38.8 km/h 92 % 0 mm
02:52 -13.8 °C -14.5 °C 34164.7 hPa SW 23.3 km/h 38.8 km/h 92 % 0 mm
02:57 -13.9 °C -14.6 °C 34164.7 hPa SW 28.5 km/h 36.2 km/h 92 % 0 mm
03:02 -13.9 °C -14.6 °C 34164.7 hPa SW 20.8 km/h 36.2 km/h 93 % 0 mm
03:07 -13.9 °C -14.6 °C 34164.7 hPa SW 12.9 km/h 31.1 km/h 93 % 0 mm
03:12 -13.9 °C -14.6 °C 34154.6 hPa WSW 10.3 km/h 31.1 km/h 93 % 0 mm
03:17 -14 °C -14.6 °C 34154.6 hPa SW 15.6 km/h 25.9 km/h 93 % 0 mm
03:32 -14 °C -14.5 °C 34178.3 hPa SW 15.6 km/h 25.9 km/h 94 % 0 mm
03:37 -14.1 °C -14.6 °C 34164.7 hPa SW 10.3 km/h 25.9 km/h 94 % 0 mm
03:42 -14.1 °C -14.6 °C 34164.7 hPa West 10.3 km/h 25.9 km/h 94 % 7.62 mm
03:52 -14.1 °C -14.6 °C 34178.3 hPa SW 7.7 km/h 33.6 km/h 94 % 7.62 mm
03:57 -14.1 °C -14.7 °C 34178.3 hPa WSW 18.2 km/h 33.6 km/h 93 % 7.62 mm
04:02 -14.1 °C -14.6 °C 34178.3 hPa WSW 5.1 km/h 33.6 km/h 94 % 7.62 mm
04:07 -14.2 °C -14.8 °C 34178.3 hPa SW 18.2 km/h 31.1 km/h 93 % 7.62 mm
04:12 -14.2 °C -14.8 °C 34178.3 hPa SSW 5.1 km/h 31.1 km/h 93 % 7.62 mm
04:17 -14.2 °C -14.8 °C 34178.3 hPa SW 10.3 km/h 25.9 km/h 93 % 7.62 mm
04:22 -14.3 °C -14.8 °C 34178.3 hPa SW 15.6 km/h 25.9 km/h 93 % 7.62 mm
04:27 -14.3 °C -14.8 °C 34178.3 hPa SW 7.7 km/h 31.1 km/h 93 % 7.62 mm
04:32 -14.3 °C -14.9 °C 34178.3 hPa West 2.6 km/h 31.1 km/h 93 % 7.62 mm
04:37 -14.3 °C -14.9 °C 34188.4 hPa SW 12.9 km/h 31.1 km/h 93 % 7.62 mm
04:42 -14.4 °C -14.9 °C 34188.4 hPa WSW 15.6 km/h 31.1 km/h 93 % 0 mm
04:47 -14.4 °C -14.9 °C 34188.4 hPa SSW 12.9 km/h 25.9 km/h 93 % 7.62 mm
04:52 -14.4 °C -15 °C 34188.4 hPa SW 12.9 km/h 25.9 km/h 93 % 7.62 mm
05:02 -14.6 °C -15.1 °C 34198.6 hPa SW 15.6 km/h 25.9 km/h 93 % 7.62 mm
05:12 -14.6 °C -15.1 °C 34198.6 hPa SW 7.7 km/h 28.5 km/h 94 % 7.62 mm
05:17 -14.7 °C -15.2 °C 34198.6 hPa WSW 5.1 km/h 25.9 km/h 94 % 7.62 mm
05:22 -14.7 °C -15.2 °C 34212.1 hPa SW 5.1 km/h 25.9 km/h 94 % 7.62 mm
05:32 -14.6 °C -15.1 °C 34212.1 hPa SW 23.3 km/h 23.3 km/h 94 % 7.62 mm
05:42 -14.6 °C -15.1 °C 34212.1 hPa West 7.7 km/h 25.9 km/h 94 % 7.62 mm
05:52 -14.6 °C -15.1 °C 34212.1 hPa SW 10.3 km/h 25.9 km/h 94 % 7.62 mm
05:57 -14.6 °C -15.1 °C 34212.1 hPa SW 10.3 km/h 28.5 km/h 94 % 0 mm
06:02 -14.6 °C -15.1 °C 34212.1 hPa West 15.6 km/h 28.5 km/h 94 % 0 mm
06:07 -14.6 °C -15.1 °C 34212.1 hPa WSW 15.6 km/h 28.5 km/h 94 % 0 mm
06:12 -14.6 °C -15.1 °C 34212.1 hPa SW 12.9 km/h 28.5 km/h 94 % 0 mm
06:22 -14.6 °C -15.1 °C 34222.3 hPa WSW 20.8 km/h 31.1 km/h 94 % 0 mm
06:32 -14.6 °C -15.1 °C 34235.8 hPa WSW 7.7 km/h 31.1 km/h 94 % 0 mm
06:42 -14.6 °C -15.1 °C 34235.8 hPa SSE 18.2 km/h 23.3 km/h 94 % 0 mm
06:47 -14.6 °C -15.1 °C 34235.8 hPa West 25.9 km/h 33.6 km/h 93 % 0 mm
06:52 -14.6 °C -15.1 °C 34235.8 hPa SW 23.3 km/h 33.6 km/h 93 % 0 mm
06:57 -14.6 °C -15.1 °C 34235.8 hPa WSW 10.3 km/h 36.2 km/h 93 % 7.62 mm
07:02 -14.6 °C -15.1 °C 34246 hPa WSW 23.3 km/h 36.2 km/h 93 % 7.62 mm
07:12 -14.6 °C -15.1 °C 34246 hPa West 18.2 km/h 36.2 km/h 93 % 7.62 mm
07:17 -14.6 °C -15.1 °C 34246 hPa SW 7.7 km/h 36.2 km/h 93 % 7.62 mm
07:22 -14.6 °C -15.1 °C 34256.2 hPa West 12.9 km/h 36.2 km/h 93 % 7.62 mm
07:32 -14.6 °C -15.2 °C 34256.2 hPa WSW 15.6 km/h 25.9 km/h 93 % 7.62 mm
07:37 -14.7 °C -15.2 °C 34256.2 hPa SSW 12.9 km/h 25.9 km/h 93 % 7.62 mm
07:42 -14.7 °C -15.3 °C 34256.2 hPa SW 7.7 km/h 25.9 km/h 93 % 7.62 mm
07:52 -14.8 °C -15.3 °C 34256.2 hPa SW 20.8 km/h 25.9 km/h 94 % 7.62 mm
07:57 -14.8 °C -15.3 °C 34269.7 hPa SW 7.7 km/h 25.9 km/h 94 % 0 mm
08:02 -14.8 °C -15.3 °C 34269.7 hPa NNW 2.6 km/h 25.9 km/h 94 % 0 mm
08:12 -14.8 °C -15.3 °C 34269.7 hPa South 7.7 km/h 25.9 km/h 94 % 0 mm
08:17 -14.9 °C -15.4 °C 34269.7 hPa SSW 10.3 km/h 18.2 km/h 94 % 0 mm
08:22 -14.9 °C -15.4 °C 34279.9 hPa SSW 10.3 km/h 18.2 km/h 94 % 0 mm
08:32 -14.9 °C -15.4 °C 34279.9 hPa SSW 12.9 km/h 20.8 km/h 94 % 0 mm
08:42 -14.9 °C -15.4 °C 34293.4 hPa SSW 12.9 km/h 20.8 km/h 94 % 0 mm
08:52 -14.9 °C -15.4 °C 34293.4 hPa South 7.7 km/h 18.2 km/h 94 % 0 mm
08:57 -14.9 °C -15.4 °C 34293.4 hPa SSW 5.1 km/h 18.2 km/h 94 % 0 mm
09:12 -14.9 °C -15.4 °C 34303.6 hPa SSW 10.3 km/h 23.3 km/h 94 % 0 mm
09:22 -14.9 °C -15.4 °C 34303.6 hPa SW 12.9 km/h 20.8 km/h 94 % 0 mm
09:27 -14.9 °C -15.4 °C 34303.6 hPa SW 12.9 km/h 25.9 km/h 94 % 0 mm
09:42 -14.8 °C -15.3 °C 34313.7 hPa WSW 10.3 km/h 36.2 km/h 93 % 0 mm
09:47 -14.8 °C -15.3 °C 34313.7 hPa SW 28.5 km/h 36.2 km/h 93 % 0 mm
09:52 -14.7 °C -15.3 °C 34313.7 hPa WSW 10.3 km/h 36.2 km/h 93 % 0 mm
09:57 -14.7 °C -15.3 °C 34313.7 hPa SW 18.2 km/h 38.8 km/h 92 % 0 mm
10:02 -14.6 °C -15.3 °C 34313.7 hPa WSW 10.3 km/h 38.8 km/h 92 % 0 mm
10:12 -14.6 °C -15.2 °C 34313.7 hPa South 15.6 km/h 38.8 km/h 92 % 0 mm
10:17 -14.5 °C -15.2 °C 34313.7 hPa West 7.7 km/h 25.9 km/h 92 % 0 mm
10:32 -14.4 °C -15.2 °C 34313.7 hPa SSW 10.3 km/h 23.3 km/h 90 % 0 mm
10:42 -14.3 °C -15.3 °C 34327.3 hPa SW 12.9 km/h 31.1 km/h 89 % 0 mm
10:47 -14.3 °C -15.3 °C 34327.3 hPa South 12.9 km/h 31.1 km/h 88 % 0 mm
10:52 -14.2 °C -15.2 °C 34313.7 hPa South 5.1 km/h 31.1 km/h 88 % 0 mm
10:57 -14.2 °C -15.2 °C 34327.3 hPa SW 15.6 km/h 44.1 km/h 88 % 0 mm
11:02 -14.1 °C -15.2 °C 34327.3 hPa WSW 7.7 km/h 44.1 km/h 87 % 0 mm
11:07 -14.1 °C -15.2 °C 34327.3 hPa WSW 18.2 km/h 31.1 km/h 87 % 0 mm
11:12 -14 °C -15.2 °C 34327.3 hPa SW 28.5 km/h 31.1 km/h 86 % 0 mm
11:22 -13.9 °C -15.2 °C 34327.3 hPa WSW 15.6 km/h 41.4 km/h 85 % 0 mm
11:32 -13.8 °C -15.1 °C 34327.3 hPa WSW 10.3 km/h 46.7 km/h 85 % 0 mm
11:37 -13.8 °C -15.2 °C 34327.3 hPa WSW 31.1 km/h 36.2 km/h 84 % 0 mm
11:52 -13.6 °C -14.9 °C 34313.7 hPa SW 15.6 km/h 41.4 km/h 85 % 0 mm
12:02 -13.6 °C -15.1 °C 34313.7 hPa SW 15.6 km/h 31.1 km/h 83 % 0 mm
12:12 -13.4 °C -15.1 °C 34313.7 hPa SW 28.5 km/h 44.1 km/h 82 % 0 mm
12:17 -13.4 °C -15.1 °C 34313.7 hPa WSW 10.3 km/h 44.1 km/h 81 % 0 mm
12:22 -13.3 °C -15.1 °C 34313.7 hPa WNW 15.6 km/h 36.2 km/h 81 % 0 mm
12:32 -13.4 °C -15.1 °C 34313.7 hPa SW 18.2 km/h 46.7 km/h 81 % 0 mm
12:37 -13.3 °C -15.1 °C 34313.7 hPa SSE 12.9 km/h 46.7 km/h 80 % 0 mm
12:42 -13.3 °C -15.1 °C 34313.7 hPa SW 20.8 km/h 46.7 km/h 80 % 0 mm
12:47 -13.2 °C -14.9 °C 34303.6 hPa SW 7.7 km/h 33.6 km/h 81 % 0 mm
12:52 -13.1 °C -15 °C 34303.6 hPa West 23.3 km/h 33.6 km/h 79 % 0 mm
12:57 -12.9 °C -14.8 °C 34303.6 hPa SW 7.7 km/h 33.6 km/h 80 % 0 mm
13:02 -12.8 °C -14.8 °C 34303.6 hPa SW 12.9 km/h 33.6 km/h 78 % 0 mm
13:07 -12.9 °C -15.1 °C 34293.4 hPa WSW 15.6 km/h 28.5 km/h 76 % 0 mm
13:12 -13.1 °C -15.4 °C 34293.4 hPa SSE 25.9 km/h 28.5 km/h 75 % 0 mm
13:17 -13.1 °C -15.1 °C 34293.4 hPa WSW 18.2 km/h 36.2 km/h 78 % 0 mm
13:22 -13.2 °C -15.3 °C 34293.4 hPa SW 20.8 km/h 36.2 km/h 77 % 0 mm
13:32 -13.1 °C -15.1 °C 34293.4 hPa SW 7.7 km/h 33.6 km/h 78 % 0 mm
13:37 -13.1 °C -15.1 °C 34293.4 hPa SW 20.8 km/h 33.6 km/h 78 % 0 mm
13:47 -13.1 °C -15.3 °C 34293.4 hPa SW 10.3 km/h 33.6 km/h 76 % 0 mm
13:52 -13.1 °C -15.3 °C 34293.4 hPa SW 7.7 km/h 33.6 km/h 76 % 0 mm
13:57 -13 °C -15.3 °C 34293.4 hPa WSW 20.8 km/h 31.1 km/h 75 % 0 mm
14:02 -12.9 °C -15.3 °C 34293.4 hPa SW 31.1 km/h 31.1 km/h 74 % 0 mm
14:07 -12.7 °C -15 °C 34279.9 hPa WSW 15.6 km/h 33.6 km/h 75 % 0 mm
14:12 -12.4 °C -15 °C 34279.9 hPa SSW 18.2 km/h 33.6 km/h 73 % 0 mm
14:22 -12.5 °C -15.5 °C 34279.9 hPa SW 25.9 km/h 36.2 km/h 69 % 0 mm
14:32 -12.7 °C -15.3 °C 34269.7 hPa WSW 10.3 km/h 46.7 km/h 72 % 0 mm
14:37 -12.6 °C -15.2 °C 34269.7 hPa SW 20.8 km/h 38.8 km/h 72 % 0 mm
14:42 -12.5 °C -15.3 °C 34269.7 hPa SW 25.9 km/h 38.8 km/h 71 % 0 mm
14:47 -12.5 °C -15.2 °C 34269.7 hPa SSW 15.6 km/h 38.8 km/h 72 % 0 mm
14:52 -12.4 °C -15.2 °C 34256.2 hPa SSW 15.6 km/h 38.8 km/h 71 % 0 mm
14:57 -12.5 °C -15.1 °C 34256.2 hPa SW 23.3 km/h 38.8 km/h 73 % 0 mm
15:02 -12.6 °C -15.2 °C 34256.2 hPa SSW 10.3 km/h 38.8 km/h 73 % 0 mm
15:07 -12.6 °C -15.2 °C 34256.2 hPa SW 10.3 km/h 36.2 km/h 73 % 0 mm
15:12 -12.6 °C -15.3 °C 34256.2 hPa SW 2.6 km/h 36.2 km/h 72 % 0 mm
15:17 -12.6 °C -15.4 °C 34246 hPa SW 18.2 km/h 28.5 km/h 71 % 0 mm
15:22 -12.6 °C -15.4 °C 34246 hPa SW 23.3 km/h 28.5 km/h 71 % 0 mm
15:32 -12.7 °C -15.2 °C 34246 hPa SW 12.9 km/h 31.1 km/h 74 % 0 mm
15:37 -12.8 °C -15.5 °C 34246 hPa South 18.2 km/h 31.1 km/h 72 % 0 mm
15:42 -12.8 °C -15.3 °C 34246 hPa SSW 7.7 km/h 31.1 km/h 73 % 0 mm
15:52 -12.9 °C -15 °C 34235.8 hPa SSW 10.3 km/h 31.1 km/h 77 % 0 mm
15:57 -12.9 °C -15.2 °C 34235.8 hPa SSW 12.9 km/h 20.8 km/h 76 % 0 mm
16:02 -12.9 °C -15.2 °C 34235.8 hPa SSW 15.6 km/h 20.8 km/h 76 % 0 mm
16:07 -13 °C -15.2 °C 34235.8 hPa SSW 10.3 km/h 23.3 km/h 76 % 0 mm
16:12 -13.1 °C -15.2 °C 34235.8 hPa South 5.1 km/h 23.3 km/h 77 % 0 mm
16:17 -13.1 °C -15.2 °C 34235.8 hPa South 7.7 km/h 23.3 km/h 77 % 0 mm
16:22 -13.2 °C -15.3 °C 34235.8 hPa SE 5.1 km/h 23.3 km/h 77 % 0 mm
16:27 -13.2 °C -15.2 °C 34235.8 hPa South 2.6 km/h 18.2 km/h 78 % 0 mm
16:37 -13.3 °C -15.2 °C 34235.8 hPa SSE 7.7 km/h 15.6 km/h 79 % 0 mm
16:42 -13.3 °C -15.1 °C 34235.8 hPa SSW 5.1 km/h 15.6 km/h 80 % 0 mm
16:47 -13.4 °C -15.2 °C 34235.8 hPa SSW 2.6 km/h 15.6 km/h 80 % 0 mm
16:52 -13.4 °C -15.2 °C 34235.8 hPa SSE 5.1 km/h 15.6 km/h 80 % 0 mm
16:57 -13.5 °C -15.3 °C 34235.8 hPa SSW 2.6 km/h 12.9 km/h 80 % 0 mm
17:02 -13.5 °C -15.3 °C 34235.8 hPa South 2.6 km/h 12.9 km/h 80 % 0 mm
17:17 -13.7 °C -15.3 °C 34235.8 hPa SSE 5.1 km/h 15.6 km/h 82 % 0 mm
17:22 -13.7 °C -15.3 °C 34235.8 hPa SW 10.3 km/h 15.6 km/h 82 % 0 mm
17:32 -13.8 °C -15.3 °C 34222.3 hPa SSW 2.6 km/h 10.3 km/h 83 % 0 mm
17:37 -13.8 °C -15.3 °C 34222.3 hPa SSE 2.6 km/h 10.3 km/h 83 % 0 mm
17:42 -13.9 °C -15.3 °C 34212.1 hPa SSW 2.6 km/h 10.3 km/h 84 % 0 mm
17:47 -13.9 °C -15.3 °C 34212.1 hPa Calm   10.3 km/h 84 % 0 mm
18:02 -14.1 °C -15.4 °C 34212.1 hPa Calm   7.7 km/h 84 % 0 mm
18:12 -14.1 °C -15.4 °C 34212.1 hPa SE 5.1 km/h 7.7 km/h 84 % 0 mm
18:17 -14.1 °C -15.4 °C 34198.6 hPa SE 2.6 km/h 7.7 km/h 85 % 0 mm
18:22 -14.1 °C -15.5 °C 34198.6 hPa South 5.1 km/h 7.7 km/h 84 % 0 mm
18:27 -14.1 °C -15.4 °C 34198.6 hPa SSE 5.1 km/h 7.7 km/h 84 % 0 mm
18:32 -14.1 °C -15.6 °C 34198.6 hPa SSE 2.6 km/h 15.6 km/h 83 % 0 mm
18:37 -14.1 °C -15.4 °C 34198.6 hPa Calm   15.6 km/h 84 % 0 mm
18:42 -14.1 °C -15.5 °C 34188.4 hPa SSE 2.6 km/h 15.6 km/h 84 % 0 mm
18:52 -14.1 °C -15.6 °C 34188.4 hPa SE 2.6 km/h 10.3 km/h 83 % 0 mm
19:07 -14.2 °C -15.6 °C 34188.4 hPa SSE 2.6 km/h 15.6 km/h 84 % 0 mm
19:12 -14.2 °C -15.6 °C 34188.4 hPa South 2.6 km/h 15.6 km/h 84 % 0 mm
19:32 -14.2 °C -15.6 °C 34178.3 hPa SSE 7.7 km/h 10.3 km/h 84 % 0 mm
19:37 -14.2 °C -15.6 °C 34178.3 hPa Calm   12.9 km/h 84 % 0 mm
19:42 -14.3 °C -15.6 °C 34178.3 hPa Calm   12.9 km/h 85 % 0 mm
19:47 -14.3 °C -15.6 °C 34178.3 hPa Calm   10.3 km/h 85 % 0 mm
19:57 -14.3 °C -15.6 °C 34164.7 hPa Calm   7.7 km/h 85 % 0 mm
20:02 -14.3 °C -15.6 °C 34164.7 hPa SE 2.6 km/h 7.7 km/h 85 % 0 mm
20:07 -14.3 °C -15.6 °C 34164.7 hPa Calm   7.7 km/h 86 % 0 mm
20:12 -14.4 °C -15.6 °C 34154.6 hPa Calm   7.7 km/h 86 % 0 mm
20:17 -14.4 °C -15.6 °C 34154.6 hPa ESE 5.1 km/h 10.3 km/h 86 % 0 mm
20:32 -14.3 °C -15.7 °C 34144.4 hPa South 2.6 km/h 15.6 km/h 84 % 0 mm
20:37 -14.3 °C -15.8 °C 34144.4 hPa SSE 5.1 km/h 15.6 km/h 83 % 0 mm
20:42 -14.2 °C -15.7 °C 34144.4 hPa SE 10.3 km/h 15.6 km/h 83 % 0 mm
20:57 -14.2 °C -15.8 °C 34144.4 hPa South 5.1 km/h 18.2 km/h 82 % 0 mm
21:02 -14.2 °C -15.8 °C 34130.9 hPa SSE 10.3 km/h 18.2 km/h 82 % 0 mm
21:07 -14.2 °C -15.8 °C 34144.4 hPa SSE 7.7 km/h 18.2 km/h 82 % 0 mm
21:12 -14.2 °C -15.7 °C 34144.4 hPa South 5.1 km/h 18.2 km/h 83 % 0 mm
21:17 -14.2 °C -15.7 °C 34130.9 hPa SE 7.7 km/h 23.3 km/h 83 % 0 mm
21:22 -14.3 °C -15.8 °C 34130.9 hPa SE 7.7 km/h 23.3 km/h 83 % 0 mm
21:27 -14.3 °C -15.8 °C 34130.9 hPa South 2.6 km/h 25.9 km/h 83 % 0 mm
21:37 -14.2 °C -15.7 °C 34130.9 hPa SE 12.9 km/h 23.3 km/h 83 % 0 mm
21:42 -14.2 °C -15.8 °C 34120.7 hPa SSE 7.7 km/h 23.3 km/h 82 % 0 mm
21:47 -14.1 °C -15.7 °C 34120.7 hPa South 10.3 km/h 25.9 km/h 82 % 0 mm
21:52 -14.1 °C -15.6 °C 34107.2 hPa SE 2.6 km/h 25.9 km/h 83 % 0 mm
21:57 -14.1 °C -15.7 °C 34107.2 hPa South 7.7 km/h 23.3 km/h 82 % 0 mm
22:02 -14.1 °C -15.7 °C 34097 hPa SSE 10.3 km/h 23.3 km/h 82 % 0 mm
22:07 -14.1 °C -15.7 °C 34097 hPa East 10.3 km/h 18.2 km/h 81 % 0 mm
22:12 -14.1 °C -15.7 °C 34086.9 hPa SSE 2.6 km/h 18.2 km/h 81 % 0 mm
22:17 -14.1 °C -15.7 °C 34097 hPa SSW 5.1 km/h 18.2 km/h 82 % 0 mm
22:22 -14.1 °C -15.7 °C 34086.9 hPa SSE 10.3 km/h 18.2 km/h 82 % 0 mm
22:27 -14.1 °C -15.7 °C 34086.9 hPa SSE 5.1 km/h 18.2 km/h 82 % 0 mm
22:32 -14.1 °C -15.7 °C 34086.9 hPa SSE 5.1 km/h 18.2 km/h 82 % 0 mm
22:37 -14.2 °C -15.8 °C 34073.3 hPa SE 10.3 km/h 18.2 km/h 81 % 0 mm
22:47 -14.2 °C -15.8 °C 34073.3 hPa SE 2.6 km/h 15.6 km/h 82 % 0 mm
22:52 -14.2 °C -15.8 °C 34063.2 hPa SSE 5.1 km/h 15.6 km/h 82 % 0 mm
22:57 -14.3 °C -15.9 °C 34049.6 hPa SE 5.1 km/h 15.6 km/h 81 % 0 mm
23:02 -14.2 °C -15.9 °C 34049.6 hPa SE 7.7 km/h 15.6 km/h 81 % 0 mm
23:12 -14.3 °C -15.9 °C 34039.5 hPa SE 2.6 km/h 12.9 km/h 81 % 0 mm
23:17 -14.3 °C -16 °C 34039.5 hPa South 2.6 km/h 18.2 km/h 81 % 0 mm
23:22 -14.3 °C -16 °C 34029.3 hPa SE 7.7 km/h 18.2 km/h 81 % 0 mm
23:27 -14.3 °C -16 °C 34029.3 hPa SE 5.1 km/h 20.8 km/h 81 % 0 mm
23:32 -14.3 °C -16 °C 34029.3 hPa South 2.6 km/h 20.8 km/h 81 % 0 mm
23:37 -14.3 °C -16 °C 34029.3 hPa SE 2.6 km/h 25.9 km/h 81 % 0 mm
23:42 -14.3 °C -15.9 °C 34029.3 hPa SSE 7.7 km/h 25.9 km/h 81 % 0 mm
23:47 -14.2 °C -16 °C 34015.8 hPa SSE 7.7 km/h 33.6 km/h 80 % 0 mm
23:52 -14.2 °C -16 °C 34005.6 hPa SE 5.1 km/h 33.6 km/h 80 % 0 mm
23:57 -14.2 °C -15.9 °C 34005.6 hPa SSE 23.3 km/h 33.6 km/h 80 % 0 mm
Meteo18
Compliments of Weather Underground - 4 mb

Script developed by  Jim McMurry - jmcmurry@mwt.net Adapted for the template by  Wim van der Kuil - Leuven-Template.eu

You find our weather info also at:

European Weather Network

Weather Underground

Equipment we use:

Weather-station
Davis Vue

Weather-program
Meteobridge

Weather-server
Raspberry PI 2 B+

Provider
1 and 1

Davis Vue

Meteobridge

Raspberry PI 2 B+

1 and 1